Time;durP1;ratioP1;P1;durP2;ratioP2;P2;SDS_P1;SDS_P2;PMS_P1;PMS_P2;Temp;Humidity;BMP_temperature;BMP_pressure;BME280_temperature;BME280_humidity;BME280_pressure;Samples;Min_cycle;Max_cycle;Signal;HPM_P1;HPM_P2
2022/07/27 00:00:41;;;;;;;4.45;1.05;;;;;;;;;;5021310;28;20228;-63
2022/07/27 00:03:06;;;;;;;4.57;0.95;;;;;;;;;;5023763;28;20251;-64
2022/07/27 00:05:31;;;;;;;5.40;1.10;;;;;;;;;;5041219;28;20231;-64
2022/07/27 00:07:57;;;;;;;4.57;1.15;;;;;;;;;;5022213;28;20204;-64
2022/07/27 00:10:22;;;;;;;2.95;0.85;;;;;;;;;;5029222;28;20550;-64
2022/07/27 00:12:47;;;;;;;5.10;0.98;;;;;;;;;;5014432;28;20211;-64
2022/07/27 00:15:13;;;;;;;4.65;0.90;;;;;;;;;;5013905;28;20218;-64
2022/07/27 00:17:38;;;;;;;3.92;0.98;;;;;;;;;;5024688;28;20203;-64
2022/07/27 00:20:04;;;;;;;3.70;0.90;;;;;;;;;;5022708;28;20438;-64
2022/07/27 00:22:29;;;;;;;6.53;1.10;;;;;;;;;;5020785;28;20216;-64
2022/07/27 00:24:54;;;;;;;5.25;0.80;;;;;;;;;;5021249;28;20281;-63
2022/07/27 00:27:19;;;;;;;4.95;0.90;;;;;;;;;;5032653;28;20532;-63
2022/07/27 00:29:45;;;;;;;6.85;1.30;;;;;;;;;;5039944;28;20692;-63
2022/07/27 00:32:10;;;;;;;4.22;0.80;;;;;;;;;;5040613;28;20310;-63
2022/07/27 00:34:35;;;;;;;3.25;0.98;;;;;;;;;;5036529;28;20223;-63
2022/07/27 00:37:01;;;;;;;4.20;1.00;;;;;;;;;;5032342;28;20227;-64
2022/07/27 00:39:26;;;;;;;6.50;1.38;;;;;;;;;;5020455;28;20223;-64
2022/07/27 00:41:51;;;;;;;5.50;1.10;;;;;;;;;;5017462;28;20203;-63
2022/07/27 00:44:27;;;;;;;5.75;1.02;;;;;;;;;;5029043;28;20730;-64
2022/07/27 00:46:53;;;;;;;5.00;1.15;;;;;;;;;;5040496;28;20358;-64
2022/07/27 00:49:18;;;;;;;4.32;1.00;;;;;;;;;;5031711;28;20324;-64
2022/07/27 00:51:43;;;;;;;4.07;1.00;;;;;;;;;;5028644;28;20214;-63
2022/07/27 00:54:09;;;;;;;4.15;1.10;;;;;;;;;;5039784;28;20267;-63
2022/07/27 00:56:34;;;;;;;3.38;1.55;;;;;;;;;;5031470;28;20211;-63
2022/07/27 00:58:59;;;;;;;4.63;1.15;;;;;;;;;;5033507;28;20210;-64
2022/07/27 01:01:25;;;;;;;3.78;1.27;;;;;;;;;;5014516;28;20302;-63
2022/07/27 01:03:50;;;;;;;7.05;1.50;;;;;;;;;;5034219;28;20250;-63
2022/07/27 01:06:15;;;;;;;7.53;1.38;;;;;;;;;;5037817;28;20207;-63
2022/07/27 01:08:41;;;;;;;4.93;1.20;;;;;;;;;;5027729;28;20215;-63
2022/07/27 01:11:07;;;;;;;3.25;1.30;;;;;;;;;;5039333;28;20230;-64
2022/07/27 01:13:32;;;;;;;3.70;1.20;;;;;;;;;;5034913;28;20579;-63
2022/07/27 01:15:58;;;;;;;5.80;1.50;;;;;;;;;;5021468;28;20222;-63
2022/07/27 01:18:25;;;;;;;5.63;1.40;;;;;;;;;;5038442;28;20215;-63
2022/07/27 01:20:51;;;;;;;4.63;1.45;;;;;;;;;;5015422;28;20207;-63
2022/07/27 01:23:16;;;;;;;3.95;1.40;;;;;;;;;;5032047;28;20284;-63
2022/07/27 01:25:41;;;;;;;4.75;1.10;;;;;;;;;;5032462;28;20223;-63
2022/07/27 01:28:07;;;;;;;3.08;1.00;;;;;;;;;;5035691;28;20218;-63
2022/07/27 01:30:34;;;;;;;4.57;1.02;;;;;;;;;;5022677;28;20292;-63
2022/07/27 01:33:00;;;;;;;5.00;1.20;;;;;;;;;;5022926;28;20235;-63
2022/07/27 01:35:25;;;;;;;4.15;1.23;;;;;;;;;;5031229;28;20211;-64
2022/07/27 01:37:50;;;;;;;3.42;1.13;;;;;;;;;;5026021;28;20227;-63
2022/07/27 01:40:16;;;;;;;3.38;1.17;;;;;;;;;;5019723;28;20212;-63
2022/07/27 01:42:41;;;;;;;5.47;1.40;;;;;;;;;;5016469;28;20243;-63
2022/07/27 01:45:07;;;;;;;5.85;1.30;;;;;;;;;;5009923;28;20224;-64
2022/07/27 01:47:32;;;;;;;4.82;1.40;;;;;;;;;;5020754;28;20270;-63
2022/07/27 01:49:57;;;;;;;5.25;1.20;;;;;;;;;;5034510;28;20207;-63
2022/07/27 01:52:23;;;;;;;6.75;1.70;;;;;;;;;;5038851;28;20636;-63
2022/07/27 01:54:48;;;;;;;6.70;1.88;;;;;;;;;;5034413;28;20210;-63
2022/07/27 01:57:14;;;;;;;8.82;1.50;;;;;;;;;;5023080;28;20227;-63
2022/07/27 01:59:40;;;;;;;6.07;1.48;;;;;;;;;;5039007;28;20226;-63
2022/07/27 02:02:05;;;;;;;6.38;1.27;;;;;;;;;;5041187;28;20215;-63
2022/07/27 02:04:30;;;;;;;7.55;1.80;;;;;;;;;;5032597;28;20301;-63
2022/07/27 02:06:56;;;;;;;5.20;1.50;;;;;;;;;;5022792;28;20745;-63
2022/07/27 02:09:24;;;;;;;4.03;1.40;;;;;;;;;;5020338;28;20212;-63
2022/07/27 02:14:33;;;;;;;6.72;1.40;;;;;;;;;;5041432;28;20207;-63
2022/07/27 02:16:59;;;;;;;4.47;1.85;;;;;;;;;;5038402;28;20803;-63
2022/07/27 02:19:24;;;;;;;8.75;2.13;;;;;;;;;;5042522;28;20215;-63
2022/07/27 02:21:49;;;;;;;5.78;1.85;;;;;;;;;;5040326;28;20214;-63
2022/07/27 02:24:15;;;;;;;7.05;1.80;;;;;;;;;;5023177;28;20772;-63
2022/07/27 02:26:40;;;;;;;5.18;1.90;;;;;;;;;;5025005;28;20827;-62
2022/07/27 02:29:05;;;;;;;8.63;2.08;;;;;;;;;;5029577;28;21154;-64
2022/07/27 02:31:31;;;;;;;6.00;1.75;;;;;;;;;;5023215;28;20317;-63
2022/07/27 02:33:56;;;;;;;6.80;2.40;;;;;;;;;;5018005;28;20824;-64
2022/07/27 02:36:21;;;;;;;8.57;1.90;;;;;;;;;;5033435;28;20662;-64
2022/07/27 02:38:47;;;;;;;4.80;2.08;;;;;;;;;;5042891;28;20218;-64
2022/07/27 02:41:12;;;;;;;7.13;1.83;;;;;;;;;;5034589;28;20261;-64
2022/07/27 02:43:37;;;;;;;7.53;1.75;;;;;;;;;;5034950;28;20244;-64
2022/07/27 02:46:03;;;;;;;4.53;1.50;;;;;;;;;;5036638;28;20219;-64
2022/07/27 02:48:30;;;;;;;5.90;1.70;;;;;;;;;;5025039;28;20212;-64
2022/07/27 02:50:58;;;;;;;7.15;1.20;;;;;;;;;;5018124;28;20206;-64
2022/07/27 02:53:23;;;;;;;3.92;1.40;;;;;;;;;;5032178;28;20718;-64
2022/07/27 02:55:49;;;;;;;6.90;1.42;;;;;;;;;;5025775;28;20214;-64
2022/07/27 02:58:14;;;;;;;8.93;1.30;;;;;;;;;;5030794;28;20265;-64
2022/07/27 03:00:40;;;;;;;5.20;1.30;;;;;;;;;;5012901;28;21016;-64
2022/07/27 03:03:05;;;;;;;3.40;1.15;;;;;;;;;;5032850;28;20210;-64
2022/07/27 03:05:31;;;;;;;3.45;1.20;;;;;;;;;;5033322;28;20795;-63
2022/07/27 03:07:56;;;;;;;4.10;1.30;;;;;;;;;;5029912;28;20706;-63
2022/07/27 03:10:21;;;;;;;3.85;1.23;;;;;;;;;;5025333;28;20565;-63
2022/07/27 03:12:47;;;;;;;5.60;1.20;;;;;;;;;;5017226;28;20259;-63
2022/07/27 03:15:12;;;;;;;4.95;1.30;;;;;;;;;;5015184;28;20368;-64
2022/07/27 03:17:37;;;;;;;5.82;1.20;;;;;;;;;;5023534;28;20235;-63
2022/07/27 03:20:03;;;;;;;3.58;1.00;;;;;;;;;;5033356;28;20227;-64
2022/07/27 03:22:31;;;;;;;5.00;1.20;;;;;;;;;;5040306;28;20211;-63
2022/07/27 03:24:56;;;;;;;3.55;0.90;;;;;;;;;;5041243;28;20219;-63
2022/07/27 03:27:21;;;;;;;5.18;1.30;;;;;;;;;;5034603;28;20672;-63
2022/07/27 03:29:47;;;;;;;5.20;1.17;;;;;;;;;;5030655;28;20553;-64
2022/07/27 03:32:12;;;;;;;5.88;1.10;;;;;;;;;;5028411;28;20213;-64
2022/07/27 03:34:37;;;;;;;7.32;1.13;;;;;;;;;;5039358;28;20211;-64
2022/07/27 03:37:03;;;;;;;5.20;1.10;;;;;;;;;;5019032;28;20287;-64
2022/07/27 03:39:28;;;;;;;4.10;1.00;;;;;;;;;;5018337;28;20215;-64
2022/07/27 03:41:53;;;;;;;8.93;1.10;;;;;;;;;;5016564;28;20219;-64
2022/07/27 03:44:19;;;;;;;5.45;1.02;;;;;;;;;;5021331;28;20322;-63
2022/07/27 03:46:44;;;;;;;5.03;0.95;;;;;;;;;;5021312;28;21310;-64
2022/07/27 03:49:09;;;;;;;7.05;1.20;;;;;;;;;;5027315;28;20207;-63
2022/07/27 03:51:35;;;;;;;7.72;1.10;;;;;;;;;;5040543;28;20264;-64
2022/07/27 03:54:02;;;;;;;7.55;1.05;;;;;;;;;;5041742;28;20218;-63
2022/07/27 03:56:27;;;;;;;10.57;1.30;;;;;;;;;;5041224;28;20658;-63
2022/07/27 03:58:53;;;;;;;2.92;0.90;;;;;;;;;;5031572;28;20241;-63
2022/07/27 04:01:18;;;;;;;3.28;0.90;;;;;;;;;;5014119;28;20297;-64
2022/07/27 04:03:43;;;;;;;5.15;1.02;;;;;;;;;;5013921;28;20436;-63
2022/07/27 04:06:09;;;;;;;5.63;1.10;;;;;;;;;;5035190;28;20248;-64
2022/07/27 04:08:34;;;;;;;4.88;1.10;;;;;;;;;;5041120;28;20207;-64
2022/07/27 04:10:59;;;;;;;7.45;1.30;;;;;;;;;;5041522;28;20199;-64
2022/07/27 04:13:25;;;;;;;4.60;1.00;;;;;;;;;;5039992;28;20318;-64
2022/07/27 04:15:50;;;;;;;4.65;0.95;;;;;;;;;;5027602;28;20214;-64
2022/07/27 04:18:15;;;;;;;3.63;0.95;;;;;;;;;;5025521;28;20249;-63
2022/07/27 04:20:40;;;;;;;6.22;1.10;;;;;;;;;;5029110;28;20897;-63
2022/07/27 04:23:06;;;;;;;6.38;0.88;;;;;;;;;;5017627;28;20265;-63
2022/07/27 04:25:31;;;;;;;3.20;0.77;;;;;;;;;;5020014;28;20249;-63
2022/07/27 04:27:56;;;;;;;5.47;1.10;;;;;;;;;;5036332;28;20210;-63
2022/07/27 04:30:22;;;;;;;4.68;0.98;;;;;;;;;;5023797;28;20679;-63
2022/07/27 04:32:47;;;;;;;4.93;1.20;;;;;;;;;;5036348;28;20211;-63
2022/07/27 04:35:12;;;;;;;5.32;1.05;;;;;;;;;;5039611;28;20284;-62
2022/07/27 04:37:38;;;;;;;4.68;1.48;;;;;;;;;;5040723;28;20246;-62
2022/07/27 04:40:04;;;;;;;5.65;1.42;;;;;;;;;;5032099;28;20335;-63
2022/07/27 04:42:29;;;;;;;5.38;1.50;;;;;;;;;;5019803;28;20301;-66
2022/07/27 04:44:55;;;;;;;6.25;1.00;;;;;;;;;;4997012;28;20223;-65
2022/07/27 04:47:20;;;;;;;4.60;1.25;;;;;;;;;;5012546;28;20967;-63
2022/07/27 04:49:45;;;;;;;4.63;1.10;;;;;;;;;;5021062;28;20637;-64
2022/07/27 04:52:13;;;;;;;3.72;1.10;;;;;;;;;;5038725;28;20926;-64
2022/07/27 04:54:38;;;;;;;4.03;1.15;;;;;;;;;;5021432;28;20216;-65
2022/07/27 04:57:03;;;;;;;4.63;1.15;;;;;;;;;;5023844;28;20210;-65
2022/07/27 04:59:29;;;;;;;5.85;1.63;;;;;;;;;;5022240;28;20708;-64
2022/07/27 05:01:54;;;;;;;5.22;1.10;;;;;;;;;;5042731;28;20361;-64
2022/07/27 05:04:19;;;;;;;4.82;1.50;;;;;;;;;;5058767;28;20234;-64
2022/07/27 05:06:45;;;;;;;10.45;1.30;;;;;;;;;;5059146;28;20199;-63
2022/07/27 05:09:10;;;;;;;3.85;1.10;;;;;;;;;;5059369;28;20218;-63
2022/07/27 05:11:36;;;;;;;3.47;1.20;;;;;;;;;;5060486;28;20303;-63
2022/07/27 05:14:02;;;;;;;5.22;1.27;;;;;;;;;;5058344;28;20281;-63
2022/07/27 05:16:28;;;;;;;4.78;1.20;;;;;;;;;;5056968;28;20546;-63
2022/07/27 05:18:53;;;;;;;5.35;1.83;;;;;;;;;;5059944;28;20723;-63
2022/07/27 05:21:18;;;;;;;6.00;1.60;;;;;;;;;;5058699;28;20212;-63
2022/07/27 05:23:44;;;;;;;5.47;1.90;;;;;;;;;;5060141;28;20743;-63
2022/07/27 05:26:09;;;;;;;5.45;1.77;;;;;;;;;;5058083;28;20294;-64
2022/07/27 05:28:34;;;;;;;4.65;1.50;;;;;;;;;;5050201;28;20214;-62
2022/07/27 05:31:00;;;;;;;6.20;1.52;;;;;;;;;;5059732;28;20215;-62
2022/07/27 05:33:25;;;;;;;4.47;1.60;;;;;;;;;;5058168;28;20222;-62
2022/07/27 05:35:51;;;;;;;4.78;1.60;;;;;;;;;;5060462;28;20222;-63
2022/07/27 05:38:16;;;;;;;4.78;1.35;;;;;;;;;;5062503;28;20225;-62
2022/07/27 05:40:44;;;;;;;5.25;1.38;;;;;;;;;;5062860;28;20661;-62
2022/07/27 05:43:09;;;;;;;5.07;1.10;;;;;;;;;;5058640;28;20235;-62
2022/07/27 05:45:34;;;;;;;4.70;1.23;;;;;;;;;;5062911;28;20233;-62
2022/07/27 05:48:00;;;;;;;3.50;1.80;;;;;;;;;;5063937;28;20198;-62
2022/07/27 05:50:25;;;;;;;3.03;1.20;;;;;;;;;;5061574;28;20246;-63
2022/07/27 05:52:51;;;;;;;2.47;1.10;;;;;;;;;;5063565;28;20198;-63
2022/07/27 05:55:16;;;;;;;6.72;1.45;;;;;;;;;;5062745;28;20219;-63
2022/07/27 05:57:41;;;;;;;5.10;1.23;;;;;;;;;;5064549;28;20198;-62
2022/07/27 06:00:07;;;;;;;2.92;1.20;;;;;;;;;;5061199;28;20242;-63
2022/07/27 06:02:33;;;;;;;4.40;1.15;;;;;;;;;;5063588;28;20206;-63
2022/07/27 06:04:58;;;;;;;4.00;1.40;;;;;;;;;;5061477;28;20223;-63
2022/07/27 06:10:07;;;;;;;5.35;1.20;;;;;;;;;;5060126;28;20252;-64
2022/07/27 06:12:39;;;;;;;4.68;1.08;;;;;;;;;;5063387;28;20212;-64
2022/07/27 06:15:05;;;;;;;4.28;1.20;;;;;;;;;;5056219;28;20274;-63
2022/07/27 06:17:30;;;;;;;3.97;1.15;;;;;;;;;;5060084;28;20496;-64
2022/07/27 06:19:55;;;;;;;3.95;0.98;;;;;;;;;;5052760;28;20237;-64
2022/07/27 06:22:20;;;;;;;2.45;0.98;;;;;;;;;;5053166;28;20211;-62
2022/07/27 06:24:46;;;;;;;3.40;1.20;;;;;;;;;;5053253;28;20774;-63
2022/07/27 06:27:11;;;;;;;2.45;1.00;;;;;;;;;;5061888;28;20226;-63
2022/07/27 06:29:37;;;;;;;2.88;0.88;;;;;;;;;;5061762;28;20206;-62
2022/07/27 06:32:02;;;;;;;3.42;0.85;;;;;;;;;;5058331;28;20199;-64
2022/07/27 06:34:27;;;;;;;3.08;0.93;;;;;;;;;;5072307;28;20207;-64
2022/07/27 06:36:54;;;;;;;3.45;1.05;;;;;;;;;;5073257;28;20234;-64
2022/07/27 06:39:19;;;;;;;4.90;1.00;;;;;;;;;;5072875;28;20243;-65
2022/07/27 06:41:44;;;;;;;3.15;1.00;;;;;;;;;;5072559;28;20218;-65
2022/07/27 06:44:10;;;;;;;6.80;1.30;;;;;;;;;;5072376;28;20680;-64
2022/07/27 06:46:35;;;;;;;3.58;1.05;;;;;;;;;;5072830;28;20372;-64
2022/07/27 06:49:00;;;;;;;4.18;1.30;;;;;;;;;;5071195;28;20213;-64
2022/07/27 06:51:26;;;;;;;4.13;1.33;;;;;;;;;;5072924;28;20210;-65
2022/07/27 06:53:53;;;;;;;10.77;1.20;;;;;;;;;;5073038;28;20218;-65
2022/07/27 06:56:19;;;;;;;3.35;1.15;;;;;;;;;;5071833;28;20244;-65
2022/07/27 06:58:44;;;;;;;1.85;0.90;;;;;;;;;;5072659;28;20214;-65
2022/07/27 07:01:09;;;;;;;1.98;0.93;;;;;;;;;;5071786;28;20257;-65
2022/07/27 07:03:35;;;;;;;3.22;0.90;;;;;;;;;;5071386;28;20635;-65
2022/07/27 07:06:00;;;;;;;2.65;0.90;;;;;;;;;;5071945;28;20211;-67
2022/07/27 07:08:25;;;;;;;2.92;1.10;;;;;;;;;;5072383;28;20214;-67
2022/07/27 07:10:51;;;;;;;5.20;0.90;;;;;;;;;;5056669;28;20219;-65
2022/07/27 07:13:16;;;;;;;2.17;0.80;;;;;;;;;;5068306;28;20212;-66
2022/07/27 07:15:42;;;;;;;3.78;1.15;;;;;;;;;;5051501;28;20273;-65
2022/07/27 07:18:07;;;;;;;5.72;1.00;;;;;;;;;;5051736;28;20210;-66
2022/07/27 07:20:33;;;;;;;3.60;0.88;;;;;;;;;;5051981;28;20211;-65
2022/07/27 07:22:58;;;;;;;3.38;0.80;;;;;;;;;;5051589;28;20214;-66
2022/07/27 07:25:24;;;;;;;2.80;0.95;;;;;;;;;;5051557;28;20219;-66
2022/07/27 07:27:49;;;;;;;5.40;0.75;;;;;;;;;;5052142;28;20214;-65
2022/07/27 07:30:15;;;;;;;5.68;0.88;;;;;;;;;;5050310;28;20229;-65
2022/07/27 07:32:40;;;;;;;3.38;0.85;;;;;;;;;;5067987;28;20850;-66
2022/07/27 07:35:05;;;;;;;4.78;0.80;;;;;;;;;;5071241;28;20240;-66
2022/07/27 07:37:31;;;;;;;3.03;0.80;;;;;;;;;;5071154;28;20210;-65
2022/07/27 07:39:56;;;;;;;5.63;0.98;;;;;;;;;;5071818;28;20202;-66
2022/07/27 07:42:22;;;;;;;4.25;0.80;;;;;;;;;;5071127;28;20217;-66
2022/07/27 07:44:47;;;;;;;4.63;0.85;;;;;;;;;;5070843;28;20309;-66
2022/07/27 07:47:12;;;;;;;3.78;0.93;;;;;;;;;;5071096;28;20206;-66
2022/07/27 07:49:38;;;;;;;4.32;1.17;;;;;;;;;;5071455;28;20283;-66
2022/07/27 07:52:03;;;;;;;4.72;1.00;;;;;;;;;;5070586;28;20211;-66
2022/07/27 07:54:28;;;;;;;6.13;1.10;;;;;;;;;;5071564;28;20679;-64
2022/07/27 07:56:54;;;;;;;3.72;0.77;;;;;;;;;;5071692;28;20210;-66
2022/07/27 07:59:19;;;;;;;4.45;0.80;;;;;;;;;;5069628;28;20256;-67
2022/07/27 08:01:44;;;;;;;4.22;0.80;;;;;;;;;;5065204;28;20644;-66
2022/07/27 08:04:09;;;;;;;3.00;0.73;;;;;;;;;;5044507;28;20582;-67
2022/07/27 08:06:35;;;;;;;5.22;1.10;;;;;;;;;;5058254;28;20701;-68
2022/07/27 08:09:00;;;;;;;8.48;1.05;;;;;;;;;;5033088;28;20245;-66
2022/07/27 08:11:26;;;;;;;5.60;1.10;;;;;;;;;;5051574;28;20553;-69
2022/07/27 08:13:52;;;;;;;4.90;0.85;;;;;;;;;;5050290;28;20215;-69
2022/07/27 08:16:17;;;;;;;6.00;0.82;;;;;;;;;;5050604;28;20218;-68
2022/07/27 08:18:42;;;;;;;6.20;1.00;;;;;;;;;;5050999;28;20214;-68
2022/07/27 08:21:08;;;;;;;8.52;1.30;;;;;;;;;;5057526;28;20206;-67
2022/07/27 08:23:33;;;;;;;7.25;1.05;;;;;;;;;;5051285;28;20667;-67
2022/07/27 08:25:58;;;;;;;5.05;1.17;;;;;;;;;;5050283;28;20211;-66
2022/07/27 08:28:24;;;;;;;4.85;1.15;;;;;;;;;;5050527;28;20207;-67
2022/07/27 08:30:49;;;;;;;3.75;0.95;;;;;;;;;;5051030;28;20614;-67
2022/07/27 08:33:15;;;;;;;7.70;1.10;;;;;;;;;;5049606;28;20305;-65
2022/07/27 08:35:40;;;;;;;3.20;1.08;;;;;;;;;;5050734;28;20212;-66
2022/07/27 08:38:06;;;;;;;5.85;1.10;;;;;;;;;;5050640;28;20217;-68
2022/07/27 08:40:31;;;;;;;4.85;1.00;;;;;;;;;;5032346;28;20221;-67
2022/07/27 08:42:57;;;;;;;6.07;0.95;;;;;;;;;;5050900;28;20223;-66
2022/07/27 08:45:23;;;;;;;7.97;1.10;;;;;;;;;;5032377;28;20246;-68
2022/07/27 08:47:48;;;;;;;4.18;1.05;;;;;;;;;;5049859;28;20199;-68
2022/07/27 08:50:22;;;;;;;6.63;1.10;;;;;;;;;;5050171;28;20219;-67
2022/07/27 08:52:48;;;;;;;4.80;0.63;;;;;;;;;;5050693;28;20213;-67
2022/07/27 08:55:13;;;;;;;3.90;1.17;;;;;;;;;;5049402;28;20211;-68
2022/07/27 08:57:39;;;;;;;4.53;1.00;;;;;;;;;;5050798;28;20289;-67
2022/07/27 09:00:05;;;;;;;4.75;1.30;;;;;;;;;;5042630;28;20646;-69
2022/07/27 09:02:30;;;;;;;6.38;0.90;;;;;;;;;;5032140;28;20238;-66
2022/07/27 09:04:56;;;;;;;5.80;1.10;;;;;;;;;;5030455;28;20216;-66
2022/07/27 09:07:25;;;;;;;3.97;0.90;;;;;;;;;;5030179;28;20341;-66
2022/07/27 09:09:50;;;;;;;5.90;1.10;;;;;;;;;;5029941;28;20212;-65
2022/07/27 09:12:16;;;;;;;3.65;1.00;;;;;;;;;;5032400;28;20226;-66
2022/07/27 09:14:42;;;;;;;6.63;1.25;;;;;;;;;;5049293;28;20203;-66
2022/07/27 09:17:17;;;;;;;4.40;1.02;;;;;;;;;;5053210;28;20219;-65
2022/07/27 09:19:53;;;;;;;42.90;2.85;;;;;;;;;;5054475;28;20630;-65
2022/07/27 09:22:36;;;;;;;16.58;1.73;;;;;;;;;;5053425;28;20707;-67
2022/07/27 09:25:02;;;;;;;5.15;1.00;;;;;;;;;;5053561;28;20705;-66
2022/07/27 09:27:29;;;;;;;4.25;0.98;;;;;;;;;;5054453;28;20326;-67
2022/07/27 09:30:00;;;;;;;5.03;1.08;;;;;;;;;;5053157;28;20210;-66
2022/07/27 09:32:25;;;;;;;3.90;0.80;;;;;;;;;;5053818;28;20273;-65
2022/07/27 09:34:51;;;;;;;5.15;0.88;;;;;;;;;;5054338;28;20202;-65
2022/07/27 09:37:23;;;;;;;4.65;0.73;;;;;;;;;;5053131;28;20286;-65
2022/07/27 09:39:48;;;;;;;4.20;1.15;;;;;;;;;;5053737;28;20242;-65
2022/07/27 09:42:15;;;;;;;8.07;0.90;;;;;;;;;;5053612;28;20239;-66
2022/07/27 09:44:40;;;;;;;7.97;1.08;;;;;;;;;;5052988;28;20271;-66
2022/07/27 09:47:19;;;;;;;14.73;1.58;;;;;;;;;;5053741;28;20203;-64
2022/07/27 09:49:45;;;;;;;6.47;0.98;;;;;;;;;;5053983;28;20569;-65
2022/07/27 09:52:10;;;;;;;4.80;1.02;;;;;;;;;;5052372;28;20282;-65
2022/07/27 09:54:42;;;;;;;6.45;1.23;;;;;;;;;;5035119;28;20207;-64
2022/07/27 09:57:07;;;;;;;3.58;0.73;;;;;;;;;;5052784;28;20290;-64
2022/07/27 09:59:33;;;;;;;7.60;0.88;;;;;;;;;;5052566;28;20321;-64
2022/07/27 10:01:59;;;;;;;7.15;1.10;;;;;;;;;;5052144;28;20222;-64
2022/07/27 10:04:25;;;;;;;5.75;1.05;;;;;;;;;;5065033;28;20246;-65
2022/07/27 10:06:50;;;;;;;5.38;0.85;;;;;;;;;;5055844;28;20736;-65
2022/07/27 10:09:16;;;;;;;3.15;0.75;;;;;;;;;;5072473;28;20305;-65
2022/07/27 10:11:42;;;;;;;3.90;0.80;;;;;;;;;;5072564;28;20209;-65
2022/07/27 10:14:07;;;;;;;3.58;0.75;;;;;;;;;;5062554;28;20203;-65
2022/07/27 10:16:32;;;;;;;9.90;1.10;;;;;;;;;;5053525;28;20218;-65
2022/07/27 10:19:02;;;;;;;6.05;0.90;;;;;;;;;;5035137;28;20290;-65
2022/07/27 10:21:27;;;;;;;3.33;0.70;;;;;;;;;;5052777;28;20239;-66
2022/07/27 10:23:53;;;;;;;2.88;0.80;;;;;;;;;;5052131;28;20203;-65
2022/07/27 10:26:22;;;;;;;5.70;0.93;;;;;;;;;;5051952;28;20694;-66
2022/07/27 10:28:57;;;;;;;8.80;1.40;;;;;;;;;;5052291;28;20229;-64
2022/07/27 10:31:25;;;;;;;5.75;1.05;;;;;;;;;;5052704;28;20205;-65
2022/07/27 10:33:51;;;;;;;11.60;1.08;;;;;;;;;;5057523;28;20210;-65
2022/07/27 10:36:37;;;;;;;8.48;1.02;;;;;;;;;;5060325;28;20305;-65
2022/07/27 10:39:04;;;;;;;5.63;0.98;;;;;;;;;;5051967;28;20206;-66
2022/07/27 10:41:31;;;;;;;3.55;1.10;;;;;;;;;;5052408;28;20203;-66
2022/07/27 10:44:20;;;;;;;22.30;1.50;;;;;;;;;;5053046;28;20710;-66
2022/07/27 10:46:47;;;;;;;7.50;1.30;;;;;;;;;;5051621;28;20927;-65
2022/07/27 10:49:17;;;;;;;3.55;0.80;;;;;;;;;;5052155;28;20670;-65
2022/07/27 10:51:43;;;;;;;7.30;1.00;;;;;;;;;;5052850;28;20203;-65
2022/07/27 10:54:20;;;;;;;6.80;1.00;;;;;;;;;;5033476;28;20210;-66
2022/07/27 10:56:46;;;;;;;4.35;1.20;;;;;;;;;;5060234;28;20214;-65
2022/07/27 10:59:11;;;;;;;3.17;1.10;;;;;;;;;;5066092;28;20618;-65
2022/07/27 11:01:45;;;;;;;23.08;1.80;;;;;;;;;;5071674;28;20214;-65
2022/07/27 11:04:11;;;;;;;4.63;0.90;;;;;;;;;;5053946;28;20221;-67
2022/07/27 11:06:36;;;;;;;27.40;2.47;;;;;;;;;;5072690;28;20198;-65
2022/07/27 11:09:02;;;;;;;5.25;1.08;;;;;;;;;;5060004;28;20223;-65
2022/07/27 11:11:27;;;;;;;4.70;0.88;;;;;;;;;;5052374;28;20227;-65
2022/07/27 11:13:54;;;;;;;3.83;0.80;;;;;;;;;;5052138;28;20322;-65
2022/07/27 11:16:19;;;;;;;2.67;0.70;;;;;;;;;;5050625;28;20349;-66
2022/07/27 11:19:02;;;;;;;5.45;0.80;;;;;;;;;;5052292;28;20301;-67
2022/07/27 11:21:29;;;;;;;11.48;1.10;;;;;;;;;;5052124;28;20203;-66
2022/07/27 11:23:56;;;;;;;3.17;0.80;;;;;;;;;;5051053;28;20352;-66
2022/07/27 11:26:22;;;;;;;7.20;0.90;;;;;;;;;;5051373;28;20215;-65
2022/07/27 11:28:47;;;;;;;2.25;0.60;;;;;;;;;;5051101;28;20253;-66
2022/07/27 11:31:12;;;;;;;3.50;1.10;;;;;;;;;;5051333;28;20265;-65
2022/07/27 11:33:52;;;;;;;4.43;1.17;;;;;;;;;;5033797;28;20282;-63
2022/07/27 11:36:18;;;;;;;3.13;0.88;;;;;;;;;;5050948;28;20222;-63
2022/07/27 11:38:44;;;;;;;2.15;0.70;;;;;;;;;;5051649;28;20203;-64
2022/07/27 11:41:12;;;;;;;2.42;0.70;;;;;;;;;;5051052;28;20239;-65
2022/07/27 11:43:38;;;;;;;3.60;1.00;;;;;;;;;;5050873;28;20209;-63
2022/07/27 11:46:11;;;;;;;4.53;0.90;;;;;;;;;;5051369;28;20229;-64
2022/07/27 11:48:36;;;;;;;2.70;0.90;;;;;;;;;;5051713;28;20199;-63
2022/07/27 11:51:02;;;;;;;4.15;0.82;;;;;;;;;;5050553;28;20626;-64
2022/07/27 11:53:27;;;;;;;4.55;1.13;;;;;;;;;;5051186;28;20585;-64
2022/07/27 11:55:53;;;;;;;4.80;0.80;;;;;;;;;;5051174;28;20225;-65
2022/07/27 11:58:18;;;;;;;4.07;0.90;;;;;;;;;;5032502;28;20211;-65
2022/07/27 12:00:44;;;;;;;3.33;0.82;;;;;;;;;;5051068;28;20226;-64
2022/07/27 12:03:19;;;;;;;3.65;0.70;;;;;;;;;;5051079;28;20218;-64
2022/07/27 12:05:55;;;;;;;5.93;0.90;;;;;;;;;;5050695;28;20218;-64
2022/07/27 12:08:20;;;;;;;4.40;1.00;;;;;;;;;;5032597;28;20289;-65
2022/07/27 12:10:56;;;;;;;3.63;0.90;;;;;;;;;;5050958;28;20298;-64
2022/07/27 12:13:22;;;;;;;3.38;1.00;;;;;;;;;;5050844;28;20355;-65
2022/07/27 12:15:55;;;;;;;2.92;0.73;;;;;;;;;;5051202;28;20603;-65
2022/07/27 12:18:20;;;;;;;3.45;0.90;;;;;;;;;;5067183;28;22101;-64
2022/07/27 12:20:47;;;;;;;5.97;1.00;;;;;;;;;;5071041;28;20313;-64
2022/07/27 12:23:12;;;;;;;5.05;0.90;;;;;;;;;;5070097;28;20216;-64
2022/07/27 12:25:39;;;;;;;5.60;0.85;;;;;;;;;;5070162;28;20219;-64
2022/07/27 12:28:06;;;;;;;4.25;1.02;;;;;;;;;;5070741;28;20207;-64
2022/07/27 12:30:33;;;;;;;3.45;0.82;;;;;;;;;;5034648;28;20224;-65
2022/07/27 12:32:58;;;;;;;1.98;0.80;;;;;;;;;;5050193;28;20204;-65
2022/07/27 12:35:25;;;;;;;3.25;0.90;;;;;;;;;;5050201;28;20207;-66
2022/07/27 12:37:56;;;;;;;4.30;0.80;;;;;;;;;;5050401;28;20809;-65
2022/07/27 12:40:21;;;;;;;8.63;0.95;;;;;;;;;;5049834;28;20710;-65
2022/07/27 12:42:47;;;;;;;7.57;0.80;;;;;;;;;;5050844;28;20336;-65
2022/07/27 12:45:13;;;;;;;3.25;0.95;;;;;;;;;;5032407;28;20219;-64
2022/07/27 12:47:40;;;;;;;6.95;0.90;;;;;;;;;;5049906;28;20203;-64
2022/07/27 12:50:06;;;;;;;3.33;0.73;;;;;;;;;;5050027;28;20223;-65
2022/07/27 12:52:32;;;;;;;3.58;0.90;;;;;;;;;;5051240;28;21208;-65
2022/07/27 12:54:57;;;;;;;5.32;0.90;;;;;;;;;;5069685;28;20367;-66
2022/07/27 12:57:23;;;;;;;2.13;0.70;;;;;;;;;;5070183;28;20210;-63
2022/07/27 12:59:48;;;;;;;2.78;1.23;;;;;;;;;;5070475;28;20587;-66
2022/07/27 13:02:14;;;;;;;5.32;0.90;;;;;;;;;;5040524;28;20334;-64
2022/07/27 13:04:40;;;;;;;4.90;0.90;;;;;;;;;;5027533;28;20227;-66
2022/07/27 13:07:05;;;;;;;5.10;1.15;;;;;;;;;;5032296;28;20288;-65
2022/07/27 13:09:30;;;;;;;2.20;0.85;;;;;;;;;;5030898;28;20656;-65
2022/07/27 13:11:55;;;;;;;3.08;0.80;;;;;;;;;;5029388;28;20573;-66
2022/07/27 13:14:21;;;;;;;5.35;0.80;;;;;;;;;;5024618;28;20302;-65
2022/07/27 13:16:47;;;;;;;4.85;0.80;;;;;;;;;;5038080;28;20248;-66
2022/07/27 13:19:13;;;;;;;4.55;0.93;;;;;;;;;;5043712;28;20211;-66
2022/07/27 13:21:39;;;;;;;4.85;0.90;;;;;;;;;;5031254;28;20294;-65
2022/07/27 13:24:07;;;;;;;2.88;0.70;;;;;;;;;;5027123;28;20848;-66
2022/07/27 13:26:33;;;;;;;3.20;0.82;;;;;;;;;;5021153;28;20220;-65
2022/07/27 13:28:58;;;;;;;6.95;0.90;;;;;;;;;;5017287;28;20771;-64
2022/07/27 13:31:24;;;;;;;5.93;0.80;;;;;;;;;;5020225;28;20251;-65
2022/07/27 13:33:50;;;;;;;3.70;0.93;;;;;;;;;;5024544;28;20234;-65
2022/07/27 13:36:16;;;;;;;7.15;0.85;;;;;;;;;;5024726;28;20285;-68
2022/07/27 13:38:41;;;;;;;5.65;1.02;;;;;;;;;;5029123;28;20198;-66
2022/07/27 13:41:07;;;;;;;4.50;0.90;;;;;;;;;;5025179;28;20216;-65
2022/07/27 13:43:32;;;;;;;6.30;0.98;;;;;;;;;;5032939;28;20693;-66
2022/07/27 13:45:58;;;;;;;3.17;1.00;;;;;;;;;;5044882;28;20223;-64
2022/07/27 13:48:23;;;;;;;3.00;0.80;;;;;;;;;;5041243;28;20207;-64
2022/07/27 13:50:48;;;;;;;3.10;0.70;;;;;;;;;;5031517;28;20222;-64
2022/07/27 13:53:15;;;;;;;4.47;0.90;;;;;;;;;;5020658;28;20210;-65
2022/07/27 13:55:41;;;;;;;5.18;1.00;;;;;;;;;;5005919;28;20623;-65
2022/07/27 13:58:06;;;;;;;3.95;1.05;;;;;;;;;;5029684;28;20285;-65
2022/07/27 14:00:31;;;;;;;3.03;0.70;;;;;;;;;;5029071;28;20286;-65
2022/07/27 14:02:57;;;;;;;4.43;0.95;;;;;;;;;;5029012;28;20254;-64
2022/07/27 14:05:22;;;;;;;5.60;1.00;;;;;;;;;;5027322;28;20227;-65
2022/07/27 14:07:48;;;;;;;4.82;1.00;;;;;;;;;;5028507;28;20242;-66
2022/07/27 14:10:31;;;;;;;3.25;0.90;;;;;;;;;;5028037;28;20299;-66
2022/07/27 14:12:59;;;;;;;5.53;0.90;;;;;;;;;;5040265;28;20321;-66
2022/07/27 14:15:25;;;;;;;5.18;0.90;;;;;;;;;;5023113;28;20319;-66
2022/07/27 14:17:50;;;;;;;3.95;1.05;;;;;;;;;;5033478;28;20273;-66
2022/07/27 14:20:16;;;;;;;4.55;1.45;;;;;;;;;;5028811;28;20211;-65
2022/07/27 14:22:41;;;;;;;10.68;1.50;;;;;;;;;;5028812;28;20326;-66
2022/07/27 14:25:06;;;;;;;13.50;1.75;;;;;;;;;;5027753;28;20577;-66
2022/07/27 14:27:32;;;;;;;6.30;1.00;;;;;;;;;;5048000;28;20218;-65
2022/07/27 14:29:57;;;;;;;4.60;1.08;;;;;;;;;;5034981;28;20258;-67
2022/07/27 14:32:22;;;;;;;4.25;0.77;;;;;;;;;;5033590;28;20237;-66
2022/07/27 14:34:47;;;;;;;5.90;1.10;;;;;;;;;;5041638;28;20203;-66
2022/07/27 14:37:13;;;;;;;3.20;0.80;;;;;;;;;;5039186;28;20562;-67
2022/07/27 14:39:38;;;;;;;4.10;0.95;;;;;;;;;;5039352;28;20218;-66
2022/07/27 14:42:03;;;;;;;3.90;1.00;;;;;;;;;;5046501;28;20335;-67